createdAt,value
2022-10-23T00:00:05.342Z,1005.77
2022-10-23T00:00:26.574Z,1005.75
2022-10-23T00:00:47.708Z,1005.77
2022-10-23T00:01:08.764Z,1005.73
2022-10-23T00:01:29.942Z,1005.75
2022-10-23T00:01:51.007Z,1005.73
2022-10-23T00:02:12.159Z,1005.73
2022-10-23T00:02:33.231Z,1005.71
2022-10-23T00:02:54.349Z,1005.73
2022-10-23T00:03:15.417Z,1005.73
2022-10-23T00:03:36.481Z,1005.77
2022-10-23T00:03:57.534Z,1005.71
2022-10-23T00:04:18.588Z,1005.71
2022-10-23T00:04:39.636Z,1005.71
2022-10-23T00:05:00.740Z,1005.73
2022-10-23T00:05:21.760Z,1005.71
2022-10-23T00:05:42.828Z,1005.71
2022-10-23T00:06:03.877Z,1005.71
2022-10-23T00:06:24.955Z,1005.69
2022-10-23T00:06:46.001Z,1005.71
2022-10-23T00:07:07.054Z,1005.69
2022-10-23T00:07:28.093Z,1005.69
2022-10-23T00:07:49.146Z,1005.71
2022-10-23T00:08:10.209Z,1005.71
2022-10-23T00:08:31.269Z,1005.69
2022-10-23T00:08:52.320Z,1005.71
2022-10-23T00:09:13.398Z,1005.71
2022-10-23T00:09:34.447Z,1005.71
2022-10-23T00:09:55.509Z,1005.71
2022-10-23T00:10:16.595Z,1005.73
2022-10-23T00:10:37.642Z,1005.71
2022-10-23T00:10:58.697Z,1005.69
2022-10-23T00:11:19.773Z,1005.73
2022-10-23T00:11:40.936Z,1005.75
2022-10-23T00:12:02.010Z,1005.73
2022-10-23T00:12:23.073Z,1005.75
2022-10-23T00:12:44.484Z,1005.79
2022-10-23T00:13:05.749Z,1005.79
2022-10-23T00:13:26.786Z,1005.79
2022-10-23T00:13:47.841Z,1005.77
2022-10-23T00:14:08.901Z,1005.79
2022-10-23T00:14:29.963Z,1005.79
2022-10-23T00:14:51.040Z,1005.81
2022-10-23T00:15:12.086Z,1005.79
2022-10-23T00:15:33.159Z,1005.79
2022-10-23T00:15:54.213Z,1005.81
2022-10-23T00:16:15.274Z,1005.79
2022-10-23T00:16:36.317Z,1005.79
2022-10-23T00:16:57.400Z,1005.77
2022-10-23T00:17:18.458Z,1005.77
2022-10-23T00:17:39.682Z,1005.77
2022-10-23T00:18:00.731Z,1005.79
2022-10-23T00:18:21.795Z,1005.77
2022-10-23T00:18:42.853Z,1005.75
2022-10-23T00:19:03.901Z,1005.75
2022-10-23T00:19:24.983Z,1005.73
2022-10-23T00:19:46.046Z,1005.75
2022-10-23T00:20:07.125Z,1005.75
2022-10-23T00:20:28.161Z,1005.73
2022-10-23T00:20:49.228Z,1005.75
2022-10-23T00:21:10.266Z,1005.73
2022-10-23T00:21:31.325Z,1005.75
2022-10-23T00:21:52.365Z,1005.71
2022-10-23T00:22:13.445Z,1005.73
2022-10-23T00:22:34.517Z,1005.75
2022-10-23T00:22:55.588Z,1005.75
2022-10-23T00:23:16.643Z,1005.73
2022-10-23T00:23:37.704Z,1005.77
2022-10-23T00:23:58.920Z,1005.79
2022-10-23T00:24:19.990Z,1005.79
2022-10-23T00:24:41.034Z,1005.77
2022-10-23T00:25:02.084Z,1005.79
2022-10-23T00:25:23.145Z,1005.79
2022-10-23T00:25:44.199Z,1005.81
2022-10-23T00:26:05.255Z,1005.83
2022-10-23T00:26:26.301Z,1005.81
2022-10-23T00:26:47.361Z,1005.83
2022-10-23T00:27:08.418Z,1005.83
2022-10-23T00:27:29.495Z,1005.83
2022-10-23T00:27:50.557Z,1005.83
2022-10-23T00:28:11.621Z,1005.85
2022-10-23T00:28:32.656Z,1005.83
2022-10-23T00:28:53.762Z,1005.87
2022-10-23T00:29:14.806Z,1005.85
2022-10-23T00:29:35.854Z,1005.85
2022-10-23T00:29:56.907Z,1005.85
2022-10-23T00:30:17.962Z,1005.85
2022-10-23T00:30:39.021Z,1005.85
2022-10-23T00:31:00.087Z,1005.83
2022-10-23T00:31:21.173Z,1005.83
2022-10-23T00:31:42.307Z,1005.85
2022-10-23T00:32:03.366Z,1005.85
2022-10-23T00:32:24.461Z,1005.83
2022-10-23T00:32:45.495Z,1005.83
2022-10-23T00:33:06.546Z,1005.85
2022-10-23T00:33:27.609Z,1005.81
2022-10-23T00:33:48.713Z,1005.85
2022-10-23T00:34:09.770Z,1005.83
2022-10-23T00:34:30.834Z,1005.85
2022-10-23T00:34:51.891Z,1005.85
2022-10-23T00:35:12.948Z,1005.81
2022-10-23T00:35:34.012Z,1005.83
2022-10-23T00:35:55.076Z,1005.83
2022-10-23T00:36:16.120Z,1005.85
2022-10-23T00:36:37.177Z,1005.83
2022-10-23T00:36:58.247Z,1005.83
2022-10-23T00:37:19.299Z,1005.85
2022-10-23T00:37:40.720Z,1005.85
2022-10-23T00:38:01.954Z,1005.85
2022-10-23T00:38:23.006Z,1005.83
2022-10-23T00:38:44.068Z,1005.83
2022-10-23T00:39:05.125Z,1005.83
2022-10-23T00:39:26.170Z,1005.85
2022-10-23T00:39:47.225Z,1005.79
2022-10-23T00:40:08.325Z,1005.79
2022-10-23T00:40:29.368Z,1005.81
2022-10-23T00:41:11.438Z,1005.77
2022-10-23T00:41:32.514Z,1005.77
2022-10-23T00:41:53.536Z,1005.77
2022-10-23T00:42:14.631Z,1005.75
2022-10-23T00:42:35.686Z,1005.79
2022-10-23T00:42:56.747Z,1005.75
2022-10-23T00:43:17.820Z,1005.77
2022-10-23T00:43:38.849Z,1005.75
2022-10-23T00:43:59.932Z,1005.75
2022-10-23T00:44:20.984Z,1005.75
2022-10-23T00:44:42.076Z,1005.77
2022-10-23T00:45:03.109Z,1005.75
2022-10-23T00:45:24.164Z,1005.73
2022-10-23T00:45:45.222Z,1005.73
2022-10-23T00:46:06.279Z,1005.71
2022-10-23T00:46:27.331Z,1005.73
2022-10-23T00:46:48.377Z,1005.71
2022-10-23T00:47:09.441Z,1005.71
2022-10-23T00:47:30.519Z,1005.71
2022-10-23T00:47:51.561Z,1005.71
2022-10-23T00:48:12.613Z,1005.68
2022-10-23T00:48:33.708Z,1005.66
2022-10-23T00:48:54.737Z,1005.68
2022-10-23T00:49:15.809Z,1005.66
2022-10-23T00:49:40.642Z,1005.68
2022-10-23T00:50:03.826Z,1005.66
2022-10-23T00:50:24.901Z,1005.66
2022-10-23T00:50:45.936Z,1005.68
2022-10-23T00:51:06.989Z,1005.66
2022-10-23T00:51:28.037Z,1005.68
2022-10-23T00:51:49.082Z,1005.68
2022-10-23T00:52:10.148Z,1005.68
2022-10-23T00:52:31.232Z,1005.69
2022-10-23T00:52:52.275Z,1005.68
2022-10-23T00:53:13.333Z,1005.71
2022-10-23T00:53:34.374Z,1005.69
2022-10-23T00:54:01.310Z,1005.64
2022-10-23T00:54:24.715Z,1005.68
2022-10-23T00:54:46.171Z,1005.68
2022-10-23T00:55:07.233Z,1005.69
2022-10-23T00:55:28.304Z,1005.68
2022-10-23T00:55:49.341Z,1005.69
2022-10-23T00:56:10.409Z,1005.69
2022-10-23T00:56:31.451Z,1005.71
2022-10-23T00:56:52.528Z,1005.73
2022-10-23T00:57:13.571Z,1005.71
2022-10-23T00:57:34.642Z,1005.71
2022-10-23T00:57:55.689Z,1005.71
2022-10-23T00:58:16.740Z,1005.71
2022-10-23T00:58:37.826Z,1005.71
2022-10-23T00:58:58.859Z,1005.73
2022-10-23T00:59:19.927Z,1005.75
2022-10-23T00:59:40.977Z,1005.73
2022-10-23T01:00:02.033Z,1005.73
2022-10-23T01:00:23.091Z,1005.75
2022-10-23T01:00:44.164Z,1005.75
2022-10-23T01:01:05.316Z,1005.75
2022-10-23T01:01:26.469Z,1005.73
2022-10-23T01:01:47.648Z,1005.71
2022-10-23T01:02:09.495Z,1005.71
2022-10-23T01:02:31.010Z,1005.71
2022-10-23T01:02:52.042Z,1005.68
2022-10-23T01:03:13.098Z,1005.66
2022-10-23T01:03:34.174Z,1005.62
2022-10-23T01:03:55.251Z,1005.62
2022-10-23T01:04:16.307Z,1005.62
2022-10-23T01:04:37.378Z,1005.64
2022-10-23T01:04:58.413Z,1005.58
2022-10-23T01:05:19.464Z,1005.62
2022-10-23T01:05:40.559Z,1005.60
2022-10-23T01:06:01.573Z,1005.60
2022-10-23T01:06:22.639Z,1005.60
2022-10-23T01:06:43.684Z,1005.60
2022-10-23T01:07:04.754Z,1005.60
2022-10-23T01:07:25.797Z,1005.60
2022-10-23T01:07:46.847Z,1005.56
2022-10-23T01:08:07.938Z,1005.58
2022-10-23T01:08:28.989Z,1005.58
2022-10-23T01:08:50.051Z,1005.54
2022-10-23T01:09:11.099Z,1005.56
2022-10-23T01:09:32.152Z,1005.56
2022-10-23T01:09:53.193Z,1005.54
2022-10-23T01:10:14.250Z,1005.54
2022-10-23T01:10:35.296Z,1005.54
2022-10-23T01:10:56.358Z,1005.56
2022-10-23T01:11:17.403Z,1005.50
2022-10-23T01:11:38.464Z,1005.50
2022-10-23T01:11:59.523Z,1005.52
2022-10-23T01:12:20.590Z,1005.52
2022-10-23T01:12:41.650Z,1005.50
2022-10-23T01:13:02.716Z,1005.46
2022-10-23T01:13:23.781Z,1005.44
2022-10-23T01:13:44.850Z,1005.44
2022-10-23T01:14:05.903Z,1005.44
2022-10-23T01:14:26.966Z,1005.44
2022-10-23T01:14:48.015Z,1005.44
2022-10-23T01:15:09.075Z,1005.42
2022-10-23T01:15:30.112Z,1005.40
2022-10-23T01:15:51.184Z,1005.42
2022-10-23T01:16:12.227Z,1005.40
2022-10-23T01:16:33.279Z,1005.38
2022-10-23T01:16:54.328Z,1005.40
2022-10-23T01:17:15.385Z,1005.38
2022-10-23T01:17:38.607Z,1005.40
2022-10-23T01:18:01.965Z,1005.40
2022-10-23T01:18:23.037Z,1005.38
2022-10-23T01:18:44.086Z,1005.40
2022-10-23T01:19:05.136Z,1005.40
2022-10-23T01:19:26.199Z,1005.40
2022-10-23T01:19:47.237Z,1005.38
2022-10-23T01:20:08.292Z,1005.38
2022-10-23T01:20:29.354Z,1005.38
2022-10-23T01:20:50.401Z,1005.30
2022-10-23T01:21:11.464Z,1005.28
2022-10-23T01:21:32.521Z,1005.28
2022-10-23T01:21:53.564Z,1005.28
2022-10-23T01:22:14.680Z,1005.28
2022-10-23T01:22:35.742Z,1005.28
2022-10-23T01:22:56.798Z,1005.26
2022-10-23T01:23:17.840Z,1005.24
2022-10-23T01:23:38.889Z,1005.24
2022-10-23T01:23:59.950Z,1005.24
2022-10-23T01:24:21.002Z,1005.24
2022-10-23T01:24:42.060Z,1005.26
2022-10-23T01:25:03.117Z,1005.24
2022-10-23T01:25:24.160Z,1005.24
2022-10-23T01:25:45.218Z,1005.24
2022-10-23T01:26:06.283Z,1005.20
2022-10-23T01:26:27.334Z,1005.22
2022-10-23T01:26:48.425Z,1005.20
2022-10-23T01:27:09.502Z,1005.18
2022-10-23T01:27:30.537Z,1005.18
2022-10-23T01:27:51.606Z,1005.20
2022-10-23T01:28:12.705Z,1005.18
2022-10-23T01:28:33.770Z,1005.16
2022-10-23T01:28:54.842Z,1005.20
2022-10-23T01:29:15.882Z,1005.20
2022-10-23T01:29:36.933Z,1005.18
2022-10-23T01:29:57.989Z,1005.20
2022-10-23T01:30:19.052Z,1005.20
2022-10-23T01:31:01.129Z,1005.20
2022-10-23T01:31:22.191Z,1005.18
2022-10-23T01:31:43.238Z,1005.18
2022-10-23T01:32:04.299Z,1005.18
2022-10-23T01:32:25.339Z,1005.20
2022-10-23T01:32:46.396Z,1005.24
2022-10-23T01:33:07.454Z,1005.20
2022-10-23T01:33:28.528Z,1005.20
2022-10-23T01:33:49.572Z,1005.22
2022-10-23T01:34:10.634Z,1005.22
2022-10-23T01:34:31.691Z,1005.22
2022-10-23T01:34:52.750Z,1005.20
2022-10-23T01:35:13.806Z,1005.20
2022-10-23T01:35:34.867Z,1005.24
2022-10-23T01:35:55.925Z,1005.24
2022-10-23T01:36:16.972Z,1005.24
2022-10-23T01:36:38.029Z,1005.24
2022-10-23T01:36:59.081Z,1005.24
2022-10-23T01:37:20.141Z,1005.24
2022-10-23T01:37:41.198Z,1005.22
2022-10-23T01:38:02.248Z,1005.22
2022-10-23T01:38:23.305Z,1005.24
2022-10-23T01:38:44.378Z,1005.22
2022-10-23T01:39:05.451Z,1005.24
2022-10-23T01:39:26.489Z,1005.24
2022-10-23T01:39:47.531Z,1005.24
2022-10-23T01:40:08.582Z,1005.22
2022-10-23T01:40:29.631Z,1005.28
2022-10-23T01:40:50.695Z,1005.24
2022-10-23T01:41:11.728Z,1005.26
2022-10-23T01:41:32.784Z,1005.26
2022-10-23T01:41:53.841Z,1005.26
2022-10-23T01:42:14.892Z,1005.26
2022-10-23T01:42:35.948Z,1005.26
2022-10-23T01:42:56.994Z,1005.26
2022-10-23T01:43:18.043Z,1005.26
2022-10-23T01:43:39.095Z,1005.26
2022-10-23T01:44:00.178Z,1005.24
2022-10-23T01:44:21.220Z,1005.24
2022-10-23T01:44:42.270Z,1005.22
2022-10-23T01:45:03.344Z,1005.26
2022-10-23T01:45:24.377Z,1005.22
2022-10-23T01:45:45.429Z,1005.22
2022-10-23T01:46:06.489Z,1005.20
2022-10-23T01:46:27.526Z,1005.22
2022-10-23T01:46:48.572Z,1005.18
2022-10-23T01:47:09.663Z,1005.16
2022-10-23T01:47:30.709Z,1005.18
2022-10-23T01:47:51.753Z,1005.14
2022-10-23T01:48:12.809Z,1005.14
2022-10-23T01:48:33.855Z,1005.16
2022-10-23T01:48:55.056Z,1005.14
2022-10-23T01:49:16.089Z,1005.14
2022-10-23T01:49:37.187Z,1005.14
2022-10-23T01:49:58.230Z,1005.14
2022-10-23T01:50:19.286Z,1005.16
2022-10-23T01:50:40.315Z,1005.16
2022-10-23T01:51:01.374Z,1005.16
2022-10-23T01:51:22.434Z,1005.18
2022-10-23T01:51:43.471Z,1005.20
2022-10-23T01:52:04.527Z,1005.20
2022-10-23T01:52:25.681Z,1005.22
2022-10-23T01:52:46.739Z,1005.22
2022-10-23T01:53:07.802Z,1005.20
2022-10-23T01:53:28.844Z,1005.22
2022-10-23T01:53:49.887Z,1005.22
2022-10-23T01:54:11.069Z,1005.20
2022-10-23T01:54:32.113Z,1005.22
2022-10-23T01:54:53.170Z,1005.18
2022-10-23T01:55:14.255Z,1005.20
2022-10-23T01:55:35.413Z,1005.20
2022-10-23T01:55:56.484Z,1005.20
2022-10-23T01:56:17.531Z,1005.18
2022-10-23T01:56:38.589Z,1005.16
2022-10-23T01:56:59.662Z,1005.14
2022-10-23T01:57:20.702Z,1005.14
2022-10-23T01:57:42.010Z,1005.14
2022-10-23T01:58:03.196Z,1005.16
2022-10-23T01:58:24.248Z,1005.14
2022-10-23T01:58:45.298Z,1005.12
2022-10-23T01:59:06.385Z,1005.12
2022-10-23T01:59:27.427Z,1005.12
2022-10-23T01:59:48.471Z,1005.08
2022-10-23T02:00:09.534Z,1005.10
2022-10-23T02:00:30.607Z,1005.08
2022-10-23T02:00:51.657Z,1005.04
2022-10-23T02:01:12.824Z,1005.04
2022-10-23T02:01:34.037Z,1005.04
2022-10-23T02:01:55.230Z,1005.04
2022-10-23T02:02:16.333Z,1005.04
2022-10-23T02:02:37.392Z,1005.02
2022-10-23T02:02:58.423Z,1005.04
2022-10-23T02:03:19.479Z,1005.02
2022-10-23T02:03:40.537Z,1005.02
2022-10-23T02:04:01.609Z,1005.00
2022-10-23T02:04:22.657Z,1005.00
2022-10-23T02:04:43.701Z,1005.00
2022-10-23T02:05:04.754Z,1005.00
2022-10-23T02:05:25.824Z,1004.98
2022-10-23T02:05:46.864Z,1004.98
2022-10-23T02:06:07.908Z,1005.02
2022-10-23T02:06:28.957Z,1004.98
2022-10-23T02:06:50.018Z,1004.98
2022-10-23T02:07:11.072Z,1004.98
2022-10-23T02:07:32.137Z,1004.98
2022-10-23T02:07:53.172Z,1005.00
2022-10-23T02:08:14.228Z,1004.98
2022-10-23T02:08:35.274Z,1004.98
2022-10-23T02:08:56.321Z,1005.02
2022-10-23T02:09:17.394Z,1004.98
2022-10-23T02:09:38.441Z,1005.00
2022-10-23T02:09:59.501Z,1005.02
2022-10-23T02:10:20.558Z,1005.02
2022-10-23T02:10:41.617Z,1005.02
2022-10-23T02:11:02.679Z,1005.04
2022-10-23T02:11:23.713Z,1005.04
2022-10-23T02:11:44.763Z,1005.02
2022-10-23T02:12:05.814Z,1005.00
2022-10-23T02:12:48.866Z,1004.94
2022-10-23T02:13:09.949Z,1004.94
2022-10-23T02:13:30.999Z,1004.92
2022-10-23T02:13:52.049Z,1004.94
2022-10-23T02:14:13.127Z,1004.90
2022-10-23T02:14:34.177Z,1004.90
2022-10-23T02:14:55.218Z,1004.90
2022-10-23T02:15:16.284Z,1004.88
2022-10-23T02:15:37.317Z,1004.90
2022-10-23T02:15:58.384Z,1004.88
2022-10-23T02:16:19.441Z,1004.84
2022-10-23T02:16:40.490Z,1004.83
2022-10-23T02:17:01.556Z,1004.84
2022-10-23T02:17:22.615Z,1004.84
2022-10-23T02:17:43.995Z,1004.86
2022-10-23T02:18:05.179Z,1004.86
2022-10-23T02:18:26.236Z,1004.86
2022-10-23T02:18:47.303Z,1004.88
2022-10-23T02:19:08.345Z,1004.88
2022-10-23T02:19:29.397Z,1004.84
2022-10-23T02:19:50.578Z,1004.88
2022-10-23T02:20:11.631Z,1004.90
2022-10-23T02:20:32.733Z,1004.88
2022-10-23T02:20:53.784Z,1004.88
2022-10-23T02:21:14.845Z,1004.86
2022-10-23T02:21:35.898Z,1004.84
2022-10-23T02:21:56.946Z,1004.83
2022-10-23T02:22:18.009Z,1004.81
2022-10-23T02:22:39.192Z,1004.81
2022-10-23T02:23:00.233Z,1004.79
2022-10-23T02:23:21.287Z,1004.79
2022-10-23T02:23:42.344Z,1004.79
2022-10-23T02:24:03.426Z,1004.79
2022-10-23T02:24:24.472Z,1004.77
2022-10-23T02:24:45.528Z,1004.73
2022-10-23T02:25:06.584Z,1004.75
2022-10-23T02:25:27.634Z,1004.73
2022-10-23T02:25:48.705Z,1004.71
2022-10-23T02:26:09.757Z,1004.73
2022-10-23T02:26:30.805Z,1004.71
2022-10-23T02:26:51.870Z,1004.69
2022-10-23T02:27:12.919Z,1004.69
2022-10-23T02:27:33.971Z,1004.67
2022-10-23T02:27:55.033Z,1004.69
2022-10-23T02:28:16.072Z,1004.67
2022-10-23T02:28:37.127Z,1004.67
2022-10-23T02:28:58.251Z,1004.67
2022-10-23T02:29:19.300Z,1004.67
2022-10-23T02:29:40.328Z,1004.67
2022-10-23T02:30:01.389Z,1004.67
2022-10-23T02:30:22.450Z,1004.67
2022-10-23T02:30:43.533Z,1004.69
2022-10-23T02:31:04.591Z,1004.71
2022-10-23T02:31:25.636Z,1004.73
2022-10-23T02:31:46.681Z,1004.73
2022-10-23T02:32:07.727Z,1004.75
2022-10-23T02:32:28.785Z,1004.75
2022-10-23T02:32:49.836Z,1004.77
2022-10-23T02:33:10.896Z,1004.77
2022-10-23T02:33:31.956Z,1004.79
2022-10-23T02:33:53.017Z,1004.77
2022-10-23T02:34:14.063Z,1004.79
2022-10-23T02:34:35.122Z,1004.75
2022-10-23T02:34:56.174Z,1004.79
2022-10-23T02:35:17.250Z,1004.79
2022-10-23T02:35:38.322Z,1004.79
2022-10-23T02:35:59.378Z,1004.81
2022-10-23T02:36:20.439Z,1004.79
2022-10-23T02:36:41.492Z,1004.79
2022-10-23T02:37:02.551Z,1004.79
2022-10-23T02:37:23.591Z,1004.79
2022-10-23T02:37:45.108Z,1004.79
2022-10-23T02:38:06.307Z,1004.79
2022-10-23T02:38:27.344Z,1004.79
2022-10-23T02:38:48.410Z,1004.81
2022-10-23T02:39:09.455Z,1004.81
2022-10-23T02:39:30.515Z,1004.81
2022-10-23T02:39:51.555Z,1004.81
2022-10-23T02:40:12.601Z,1004.81
2022-10-23T02:40:33.656Z,1004.81
2022-10-23T02:40:54.833Z,1004.81
2022-10-23T02:41:15.882Z,1004.79
2022-10-23T02:41:36.940Z,1004.81
2022-10-23T02:41:57.992Z,1004.79
2022-10-23T02:42:19.035Z,1004.77
2022-10-23T02:42:40.105Z,1004.77
2022-10-23T02:43:01.146Z,1004.75
2022-10-23T02:43:22.203Z,1004.75
2022-10-23T02:43:43.315Z,1004.75
2022-10-23T02:44:04.394Z,1004.73
2022-10-23T02:44:25.451Z,1004.75
2022-10-23T02:44:46.500Z,1004.73
2022-10-23T02:45:07.558Z,1004.75
2022-10-23T02:45:28.627Z,1004.75
2022-10-23T02:45:49.700Z,1004.75
2022-10-23T02:46:10.755Z,1004.71
2022-10-23T02:46:31.808Z,1004.71
2022-10-23T02:46:52.863Z,1004.73
2022-10-23T02:47:13.958Z,1004.71
2022-10-23T02:47:34.977Z,1004.73
2022-10-23T02:47:56.064Z,1004.73
2022-10-23T02:48:17.097Z,1004.73
2022-10-23T02:48:38.152Z,1004.69
2022-10-23T02:48:59.199Z,1004.67
2022-10-23T02:49:20.251Z,1004.67
2022-10-23T02:49:41.307Z,1004.67
2022-10-23T02:50:02.363Z,1004.67
2022-10-23T02:50:23.410Z,1004.67
2022-10-23T02:50:44.457Z,1004.63
2022-10-23T02:51:05.512Z,1004.63
2022-10-23T02:51:26.596Z,1004.61
2022-10-23T02:51:47.631Z,1004.57
2022-10-23T02:52:08.689Z,1004.55
2022-10-23T02:52:29.763Z,1004.57
2022-10-23T02:52:50.822Z,1004.55
2022-10-23T02:53:11.884Z,1004.53
2022-10-23T02:53:32.941Z,1004.51
2022-10-23T02:53:54.055Z,1004.47
2022-10-23T02:54:15.098Z,1004.45
2022-10-23T02:54:36.128Z,1004.43
2022-10-23T02:54:57.187Z,1004.43
2022-10-23T02:55:18.248Z,1004.37
2022-10-23T02:55:39.302Z,1004.37
2022-10-23T02:56:00.368Z,1004.37
2022-10-23T02:56:21.401Z,1004.33
2022-10-23T02:56:42.572Z,1004.35
2022-10-23T02:57:03.622Z,1004.32
2022-10-23T02:57:24.681Z,1004.32
2022-10-23T02:57:45.765Z,1004.30
2022-10-23T02:58:06.793Z,1004.32
2022-10-23T02:58:27.883Z,1004.30
2022-10-23T02:58:48.926Z,1004.32
2022-10-23T02:59:09.975Z,1004.30
2022-10-23T02:59:31.046Z,1004.32
2022-10-23T02:59:52.081Z,1004.32
2022-10-23T03:00:13.143Z,1004.33
2022-10-23T03:00:34.218Z,1004.37
2022-10-23T03:00:55.288Z,1004.37
2022-10-23T03:01:16.454Z,1004.39
2022-10-23T03:01:37.662Z,1004.41
2022-10-23T03:01:58.892Z,1004.43
2022-10-23T03:02:20.068Z,1004.41
2022-10-23T03:02:41.201Z,1004.41
2022-10-23T03:03:02.249Z,1004.43
2022-10-23T03:03:23.301Z,1004.45
2022-10-23T03:03:44.363Z,1004.45
2022-10-23T03:04:05.407Z,1004.47
2022-10-23T03:04:26.483Z,1004.47
2022-10-23T03:04:47.522Z,1004.51
2022-10-23T03:05:08.568Z,1004.49
2022-10-23T03:05:29.731Z,1004.51
2022-10-23T03:05:50.790Z,1004.51
2022-10-23T03:06:11.838Z,1004.49
2022-10-23T03:06:32.892Z,1004.49
2022-10-23T03:06:53.968Z,1004.53
2022-10-23T03:07:15.013Z,1004.51
2022-10-23T03:07:36.068Z,1004.53
2022-10-23T03:07:57.141Z,1004.49
2022-10-23T03:08:18.199Z,1004.51
2022-10-23T03:08:39.251Z,1004.51
2022-10-23T03:09:00.299Z,1004.51
2022-10-23T03:09:21.356Z,1004.51
2022-10-23T03:09:42.412Z,1004.51
2022-10-23T03:10:03.478Z,1004.53
2022-10-23T03:10:24.547Z,1004.53
2022-10-23T03:10:45.861Z,1004.51
2022-10-23T03:11:06.946Z,1004.55
2022-10-23T03:11:27.976Z,1004.53
2022-10-23T03:11:49.047Z,1004.55
2022-10-23T03:12:10.080Z,1004.55
2022-10-23T03:12:31.135Z,1004.57
2022-10-23T03:12:52.198Z,1004.57
2022-10-23T03:13:13.240Z,1004.57
2022-10-23T03:13:34.299Z,1004.55
2022-10-23T03:13:55.383Z,1004.55
2022-10-23T03:14:16.406Z,1004.55
2022-10-23T03:14:37.478Z,1004.55
2022-10-23T03:14:58.511Z,1004.55
2022-10-23T03:15:19.560Z,1004.57
2022-10-23T03:15:40.612Z,1004.55
2022-10-23T03:16:01.770Z,1004.55
2022-10-23T03:16:22.829Z,1004.55
2022-10-23T03:16:43.883Z,1004.57
2022-10-23T03:17:04.932Z,1004.57
2022-10-23T03:17:26.002Z,1004.55
2022-10-23T03:17:47.057Z,1004.57
2022-10-23T03:18:08.096Z,1004.57
2022-10-23T03:18:29.158Z,1004.53
2022-10-23T03:18:50.202Z,1004.55
2022-10-23T03:19:33.250Z,1004.53
2022-10-23T03:19:54.311Z,1004.53
2022-10-23T03:20:15.369Z,1004.53
2022-10-23T03:20:36.419Z,1004.49
2022-10-23T03:20:57.472Z,1004.49
2022-10-23T03:21:18.559Z,1004.47
2022-10-23T03:21:39.601Z,1004.47
2022-10-23T03:22:00.654Z,1004.47
2022-10-23T03:22:21.749Z,1004.45
2022-10-23T03:22:42.992Z,1004.45
2022-10-23T03:23:04.231Z,1004.45
2022-10-23T03:23:25.294Z,1004.41
2022-10-23T03:23:46.339Z,1004.43
2022-10-23T03:24:07.398Z,1004.41
2022-10-23T03:24:28.452Z,1004.39
2022-10-23T03:24:49.507Z,1004.41
2022-10-23T03:25:10.566Z,1004.37
2022-10-23T03:25:31.606Z,1004.39
2022-10-23T03:25:52.676Z,1004.37
2022-10-23T03:26:13.721Z,1004.37
2022-10-23T03:26:34.824Z,1004.37
2022-10-23T03:26:55.856Z,1004.35
2022-10-23T03:27:16.924Z,1004.37
2022-10-23T03:27:37.985Z,1004.35
2022-10-23T03:27:59.041Z,1004.35
2022-10-23T03:28:20.101Z,1004.35
2022-10-23T03:28:41.163Z,1004.35
2022-10-23T03:29:02.234Z,1004.33
2022-10-23T03:29:23.273Z,1004.37
2022-10-23T03:29:44.356Z,1004.41
2022-10-23T03:30:05.406Z,1004.41
2022-10-23T03:30:26.440Z,1004.43
2022-10-23T03:30:47.500Z,1004.39
2022-10-23T03:31:08.540Z,1004.47
2022-10-23T03:31:29.609Z,1004.49
2022-10-23T03:31:50.785Z,1004.51
2022-10-23T03:32:11.851Z,1004.49
2022-10-23T03:32:32.903Z,1004.49
2022-10-23T03:32:53.967Z,1004.53
2022-10-23T03:33:15.011Z,1004.53
2022-10-23T03:33:36.060Z,1004.55
2022-10-23T03:33:57.113Z,1004.53
2022-10-23T03:34:18.198Z,1004.55
2022-10-23T03:34:39.232Z,1004.53
2022-10-23T03:35:00.284Z,1004.53
2022-10-23T03:35:21.352Z,1004.53
2022-10-23T03:35:42.432Z,1004.53
2022-10-23T03:36:03.489Z,1004.53
2022-10-23T03:36:24.552Z,1004.51
2022-10-23T03:36:45.602Z,1004.51
2022-10-23T03:37:06.774Z,1004.51
2022-10-23T03:37:27.826Z,1004.49
2022-10-23T03:37:48.882Z,1004.47
2022-10-23T03:38:09.935Z,1004.47
2022-10-23T03:38:30.987Z,1004.47
2022-10-23T03:38:52.033Z,1004.47
2022-10-23T03:39:13.103Z,1004.47
2022-10-23T03:39:34.149Z,1004.47
2022-10-23T03:39:55.258Z,1004.47
2022-10-23T03:40:16.309Z,1004.47
2022-10-23T03:40:37.357Z,1004.47
2022-10-23T03:40:58.413Z,1004.47
2022-10-23T03:41:19.464Z,1004.49
2022-10-23T03:41:40.512Z,1004.49
2022-10-23T03:42:01.568Z,1004.49
2022-10-23T03:42:22.653Z,1004.49
2022-10-23T03:42:43.717Z,1004.49
2022-10-23T03:43:04.756Z,1004.49
2022-10-23T03:43:25.809Z,1004.51
2022-10-23T03:43:46.864Z,1004.51
2022-10-23T03:44:07.921Z,1004.49
2022-10-23T03:44:28.976Z,1004.49
2022-10-23T03:44:50.055Z,1004.49
2022-10-23T03:45:11.092Z,1004.51
2022-10-23T03:45:32.167Z,1004.51
2022-10-23T03:45:53.207Z,1004.51
2022-10-23T03:46:14.255Z,1004.49
2022-10-23T03:46:35.324Z,1004.51
2022-10-23T03:46:56.387Z,1004.49
2022-10-23T03:47:17.441Z,1004.51
2022-10-23T03:47:38.511Z,1004.51
2022-10-23T03:47:59.569Z,1004.49
2022-10-23T03:48:20.629Z,1004.49
2022-10-23T03:48:41.673Z,1004.47
2022-10-23T03:49:02.740Z,1004.43
2022-10-23T03:49:23.778Z,1004.43
2022-10-23T03:49:44.872Z,1004.41
2022-10-23T03:50:05.881Z,1004.41
2022-10-23T03:50:26.929Z,1004.41
2022-10-23T03:50:47.989Z,1004.41
2022-10-23T03:51:09.041Z,1004.39
2022-10-23T03:51:30.109Z,1004.39
2022-10-23T03:51:51.150Z,1004.39
2022-10-23T03:52:12.244Z,1004.41
2022-10-23T03:52:33.278Z,1004.37
2022-10-23T03:52:54.336Z,1004.39
2022-10-23T03:53:15.403Z,1004.39
2022-10-23T03:53:36.477Z,1004.39
2022-10-23T03:53:57.519Z,1004.41
2022-10-23T03:54:18.554Z,1004.43
2022-10-23T03:54:39.605Z,1004.45
2022-10-23T03:55:00.712Z,1004.47
2022-10-23T03:55:21.809Z,1004.49
2022-10-23T03:55:42.824Z,1004.49
2022-10-23T03:56:03.917Z,1004.51
2022-10-23T03:56:24.953Z,1004.53
2022-10-23T03:56:45.987Z,1004.51
2022-10-23T03:57:07.048Z,1004.55
2022-10-23T03:57:28.108Z,1004.53
2022-10-23T03:57:49.152Z,1004.53
2022-10-23T03:58:10.203Z,1004.53
2022-10-23T03:58:31.386Z,1004.51
2022-10-23T03:58:52.445Z,1004.51
2022-10-23T03:59:13.513Z,1004.49
2022-10-23T03:59:34.550Z,1004.47
2022-10-23T03:59:55.623Z,1004.47
2022-10-23T04:00:16.652Z,1004.45
2022-10-23T04:00:37.770Z,1004.45
2022-10-23T04:00:58.949Z,1004.43
2022-10-23T04:01:20.168Z,1004.39
2022-10-23T04:01:41.372Z,1004.37
2022-10-23T04:02:02.651Z,1004.37
2022-10-23T04:02:23.808Z,1004.35
2022-10-23T04:02:45.116Z,1004.33
2022-10-23T04:03:06.394Z,1004.33
2022-10-23T04:03:27.442Z,1004.32
2022-10-23T04:03:48.532Z,1004.32
2022-10-23T04:04:09.576Z,1004.30
2022-10-23T04:04:30.618Z,1004.28
2022-10-23T04:04:51.667Z,1004.28
2022-10-23T04:05:12.724Z,1004.28
2022-10-23T04:05:33.772Z,1004.28
2022-10-23T04:05:54.828Z,1004.28
2022-10-23T04:06:15.936Z,1004.28
2022-10-23T04:06:37.017Z,1004.24
2022-10-23T04:06:58.142Z,1004.26
2022-10-23T04:07:19.338Z,1004.28
2022-10-23T04:07:40.394Z,1004.30
2022-10-23T04:08:01.454Z,1004.33
2022-10-23T04:08:22.504Z,1004.33
2022-10-23T04:08:43.573Z,1004.37
2022-10-23T04:09:04.658Z,1004.39
2022-10-23T04:09:25.680Z,1004.41
2022-10-23T04:09:46.795Z,1004.45
2022-10-23T04:10:07.838Z,1004.45
2022-10-23T04:10:28.896Z,1004.45
2022-10-23T04:10:49.957Z,1004.45
2022-10-23T04:11:11.014Z,1004.47
2022-10-23T04:11:32.058Z,1004.47
2022-10-23T04:11:53.128Z,1004.49
2022-10-23T04:12:14.174Z,1004.49
2022-10-23T04:12:35.221Z,1004.47
2022-10-23T04:12:56.283Z,1004.49
2022-10-23T04:13:17.356Z,1004.53
2022-10-23T04:13:38.393Z,1004.49
2022-10-23T04:13:59.456Z,1004.49
2022-10-23T04:14:20.539Z,1004.47
2022-10-23T04:14:41.564Z,1004.49
2022-10-23T04:15:02.659Z,1004.49
2022-10-23T04:15:23.717Z,1004.47
2022-10-23T04:15:44.761Z,1004.51
2022-10-23T04:16:05.808Z,1004.49
2022-10-23T04:16:26.856Z,1004.49